sensor_id;sensor_type;location;lat;lon;timestamp;temperature;humidity
22112;DHT22;11222;50.872;4.312;2023-03-31T00:01:30;12.80;99.90
22112;DHT22;11222;50.872;4.312;2023-03-31T00:03:58;12.80;99.90
22112;DHT22;11222;50.872;4.312;2023-03-31T00:06:36;12.70;99.90
22112;DHT22;11222;50.872;4.312;2023-03-31T00:09:07;12.60;99.90
22112;DHT22;11222;50.872;4.312;2023-03-31T00:11:33;12.60;99.90
22112;DHT22;11222;50.872;4.312;2023-03-31T00:13:59;12.50;99.90
22112;DHT22;11222;50.872;4.312;2023-03-31T00:16:24;12.50;99.90
22112;DHT22;11222;50.872;4.312;2023-03-31T00:18:51;12.50;99.90
22112;DHT22;11222;50.872;4.312;2023-03-31T00:21:21;12.50;99.90
22112;DHT22;11222;50.872;4.312;2023-03-31T00:23:52;12.50;99.90
22112;DHT22;11222;50.872;4.312;2023-03-31T00:26:18;12.40;99.90
22112;DHT22;11222;50.872;4.312;2023-03-31T00:28:44;12.40;99.90
22112;DHT22;11222;50.872;4.312;2023-03-31T00:31:09;12.40;99.90
22112;DHT22;11222;50.872;4.312;2023-03-31T00:33:35;12.30;99.90
22112;DHT22;11222;50.872;4.312;2023-03-31T00:36:01;12.20;99.90
22112;DHT22;11222;50.872;4.312;2023-03-31T00:38:31;12.20;99.90
22112;DHT22;11222;50.872;4.312;2023-03-31T00:40:57;12.20;99.90
22112;DHT22;11222;50.872;4.312;2023-03-31T00:43:35;12.10;99.90
22112;DHT22;11222;50.872;4.312;2023-03-31T00:46:12;12.00;99.90
22112;DHT22;11222;50.872;4.312;2023-03-31T00:48:47;12.00;99.90
22112;DHT22;11222;50.872;4.312;2023-03-31T00:51:14;11.90;99.90
22112;DHT22;11222;50.872;4.312;2023-03-31T00:53:40;12.00;99.90
22112;DHT22;11222;50.872;4.312;2023-03-31T00:56:11;12.00;99.90
22112;DHT22;11222;50.872;4.312;2023-03-31T00:58:39;12.00;99.90
22112;DHT22;11222;50.872;4.312;2023-03-31T01:01:10;12.00;99.90
22112;DHT22;11222;50.872;4.312;2023-03-31T01:03:40;12.00;99.90
22112;DHT22;11222;50.872;4.312;2023-03-31T01:06:07;12.00;99.90
22112;DHT22;11222;50.872;4.312;2023-03-31T01:08:36;12.00;99.90
22112;DHT22;11222;50.872;4.312;2023-03-31T01:11:05;12.00;99.90
22112;DHT22;11222;50.872;4.312;2023-03-31T01:13:34;12.00;99.90
22112;DHT22;11222;50.872;4.312;2023-03-31T01:16:01;12.10;99.90
22112;DHT22;11222;50.872;4.312;2023-03-31T01:18:28;12.10;99.90
22112;DHT22;11222;50.872;4.312;2023-03-31T01:32:05;12.10;99.90
22112;DHT22;11222;50.872;4.312;2023-03-31T01:34:55;12.10;99.90
22112;DHT22;11222;50.872;4.312;2023-03-31T01:40:28;12.20;99.90
22112;DHT22;11222;50.872;4.312;2023-03-31T01:48:12;12.10;99.90
22112;DHT22;11222;50.872;4.312;2023-03-31T01:50:49;12.20;99.90
22112;DHT22;11222;50.872;4.312;2023-03-31T01:56:12;12.20;99.90
22112;DHT22;11222;50.872;4.312;2023-03-31T02:01:51;12.20;99.90
22112;DHT22;11222;50.872;4.312;2023-03-31T02:04:35;12.20;99.90
22112;DHT22;11222;50.872;4.312;2023-03-31T02:07:09;12.20;99.90
22112;DHT22;11222;50.872;4.312;2023-03-31T02:09:41;12.10;99.90
22112;DHT22;11222;50.872;4.312;2023-03-31T02:12:09;12.10;99.90
22112;DHT22;11222;50.872;4.312;2023-03-31T02:14:39;12.00;99.90
22112;DHT22;11222;50.872;4.312;2023-03-31T02:17:10;12.00;99.90
22112;DHT22;11222;50.872;4.312;2023-03-31T02:19:40;11.90;99.90
22112;DHT22;11222;50.872;4.312;2023-03-31T02:22:08;11.90;99.90
22112;DHT22;11222;50.872;4.312;2023-03-31T02:24:35;11.80;99.90
22112;DHT22;11222;50.872;4.312;2023-03-31T02:27:07;11.70;99.90
22112;DHT22;11222;50.872;4.312;2023-03-31T02:29:34;11.70;99.90
22112;DHT22;11222;50.872;4.312;2023-03-31T02:32:06;11.70;99.90
22112;DHT22;11222;50.872;4.312;2023-03-31T02:34:36;11.70;99.90
22112;DHT22;11222;50.872;4.312;2023-03-31T02:37:01;11.80;99.90
22112;DHT22;11222;50.872;4.312;2023-03-31T02:39:31;11.90;99.90
22112;DHT22;11222;50.872;4.312;2023-03-31T02:41:58;11.90;99.90
22112;DHT22;11222;50.872;4.312;2023-03-31T02:44:23;11.80;99.90
22112;DHT22;11222;50.872;4.312;2023-03-31T02:46:50;11.90;99.90
22112;DHT22;11222;50.872;4.312;2023-03-31T02:49:17;11.90;99.90
22112;DHT22;11222;50.872;4.312;2023-03-31T02:57:10;11.90;99.90
22112;DHT22;11222;50.872;4.312;2023-03-31T03:00:12;12.00;99.90
22112;DHT22;11222;50.872;4.312;2023-03-31T03:13:17;12.20;99.90
22112;DHT22;11222;50.872;4.312;2023-03-31T03:15:47;12.10;99.90
22112;DHT22;11222;50.872;4.312;2023-03-31T03:18:14;12.10;99.90
22112;DHT22;11222;50.872;4.312;2023-03-31T03:20:43;12.00;99.90
22112;DHT22;11222;50.872;4.312;2023-03-31T03:23:14;11.90;99.90
22112;DHT22;11222;50.872;4.312;2023-03-31T03:25:40;11.90;99.90
22112;DHT22;11222;50.872;4.312;2023-03-31T03:28:06;11.80;99.90
22112;DHT22;11222;50.872;4.312;2023-03-31T03:30:32;11.80;99.90
22112;DHT22;11222;50.872;4.312;2023-03-31T03:32:58;11.70;99.90
22112;DHT22;11222;50.872;4.312;2023-03-31T03:35:23;11.60;99.90
22112;DHT22;11222;50.872;4.312;2023-03-31T03:37:49;11.50;99.90
22112;DHT22;11222;50.872;4.312;2023-03-31T03:40:15;11.20;99.90
22112;DHT22;11222;50.872;4.312;2023-03-31T03:42:41;11.10;99.90
22112;DHT22;11222;50.872;4.312;2023-03-31T03:45:07;11.10;99.90
22112;DHT22;11222;50.872;4.312;2023-03-31T03:47:33;11.10;99.90
22112;DHT22;11222;50.872;4.312;2023-03-31T03:50:00;11.20;99.90
22112;DHT22;11222;50.872;4.312;2023-03-31T03:52:26;11.10;99.90
22112;DHT22;11222;50.872;4.312;2023-03-31T03:54:52;11.10;99.90
22112;DHT22;11222;50.872;4.312;2023-03-31T03:57:18;11.00;99.90
22112;DHT22;11222;50.872;4.312;2023-03-31T03:59:43;11.00;99.90
22112;DHT22;11222;50.872;4.312;2023-03-31T04:02:09;11.00;99.90
22112;DHT22;11222;50.872;4.312;2023-03-31T04:04:35;10.80;99.90
22112;DHT22;11222;50.872;4.312;2023-03-31T04:07:01;10.80;99.90
22112;DHT22;11222;50.872;4.312;2023-03-31T04:09:26;10.70;99.90
22112;DHT22;11222;50.872;4.312;2023-03-31T04:11:53;10.70;99.90
22112;DHT22;11222;50.872;4.312;2023-03-31T04:14:18;10.70;99.90
22112;DHT22;11222;50.872;4.312;2023-03-31T04:16:44;10.70;99.90
22112;DHT22;11222;50.872;4.312;2023-03-31T04:19:12;10.70;99.90
22112;DHT22;11222;50.872;4.312;2023-03-31T04:21:39;10.70;99.90
22112;DHT22;11222;50.872;4.312;2023-03-31T04:24:11;10.80;99.90
22112;DHT22;11222;50.872;4.312;2023-03-31T04:26:45;10.90;99.90
22112;DHT22;11222;50.872;4.312;2023-03-31T04:29:15;10.90;99.90
22112;DHT22;11222;50.872;4.312;2023-03-31T04:31:42;11.00;99.90
22112;DHT22;11222;50.872;4.312;2023-03-31T04:34:09;11.00;99.90
22112;DHT22;11222;50.872;4.312;2023-03-31T04:36:41;11.10;99.90
22112;DHT22;11222;50.872;4.312;2023-03-31T04:39:12;11.10;99.90
22112;DHT22;11222;50.872;4.312;2023-03-31T04:41:37;11.10;99.90
22112;DHT22;11222;50.872;4.312;2023-03-31T04:44:03;11.20;99.90
22112;DHT22;11222;50.872;4.312;2023-03-31T04:46:29;11.20;99.90
22112;DHT22;11222;50.872;4.312;2023-03-31T04:48:55;11.20;99.90
22112;DHT22;11222;50.872;4.312;2023-03-31T04:51:23;11.20;99.90
22112;DHT22;11222;50.872;4.312;2023-03-31T04:53:48;11.20;99.90
22112;DHT22;11222;50.872;4.312;2023-03-31T04:56:14;11.20;99.90
22112;DHT22;11222;50.872;4.312;2023-03-31T04:58:40;11.30;99.90
22112;DHT22;11222;50.872;4.312;2023-03-31T05:01:06;11.30;99.90
22112;DHT22;11222;50.872;4.312;2023-03-31T05:03:32;11.30;99.90
22112;DHT22;11222;50.872;4.312;2023-03-31T05:05:57;11.30;99.90
22112;DHT22;11222;50.872;4.312;2023-03-31T05:08:23;11.40;99.90
22112;DHT22;11222;50.872;4.312;2023-03-31T05:10:49;11.40;99.90
22112;DHT22;11222;50.872;4.312;2023-03-31T05:13:15;11.30;99.90
22112;DHT22;11222;50.872;4.312;2023-03-31T05:15:40;11.30;99.90
22112;DHT22;11222;50.872;4.312;2023-03-31T05:18:07;11.30;99.90
22112;DHT22;11222;50.872;4.312;2023-03-31T05:20:33;11.30;99.90
22112;DHT22;11222;50.872;4.312;2023-03-31T05:22:59;11.30;99.90
22112;DHT22;11222;50.872;4.312;2023-03-31T05:25:24;11.30;99.90
22112;DHT22;11222;50.872;4.312;2023-03-31T05:27:53;11.30;99.90
22112;DHT22;11222;50.872;4.312;2023-03-31T05:30:19;11.30;99.90
22112;DHT22;11222;50.872;4.312;2023-03-31T05:32:45;11.30;99.90
22112;DHT22;11222;50.872;4.312;2023-03-31T05:35:10;11.30;99.90
22112;DHT22;11222;50.872;4.312;2023-03-31T05:37:36;11.30;99.90
22112;DHT22;11222;50.872;4.312;2023-03-31T05:40:02;11.30;99.90
22112;DHT22;11222;50.872;4.312;2023-03-31T05:42:31;11.40;99.90
22112;DHT22;11222;50.872;4.312;2023-03-31T05:44:57;11.40;99.90
22112;DHT22;11222;50.872;4.312;2023-03-31T05:47:22;11.40;99.90
22112;DHT22;11222;50.872;4.312;2023-03-31T05:49:48;11.40;99.90
22112;DHT22;11222;50.872;4.312;2023-03-31T05:52:14;11.50;99.90
22112;DHT22;11222;50.872;4.312;2023-03-31T05:54:40;11.50;99.90
22112;DHT22;11222;50.872;4.312;2023-03-31T05:57:07;11.50;99.90
22112;DHT22;11222;50.872;4.312;2023-03-31T05:59:33;11.60;99.90
22112;DHT22;11222;50.872;4.312;2023-03-31T06:02:00;11.60;99.90
22112;DHT22;11222;50.872;4.312;2023-03-31T06:04:26;11.70;99.90
22112;DHT22;11222;50.872;4.312;2023-03-31T06:06:52;11.70;99.90
22112;DHT22;11222;50.872;4.312;2023-03-31T06:09:19;11.70;99.90
22112;DHT22;11222;50.872;4.312;2023-03-31T06:11:45;11.80;99.90
22112;DHT22;11222;50.872;4.312;2023-03-31T06:14:12;11.70;99.90
22112;DHT22;11222;50.872;4.312;2023-03-31T06:16:38;11.80;99.90
22112;DHT22;11222;50.872;4.312;2023-03-31T06:19:03;11.80;99.90
22112;DHT22;11222;50.872;4.312;2023-03-31T06:21:29;11.90;99.90
22112;DHT22;11222;50.872;4.312;2023-03-31T06:23:55;11.90;99.90
22112;DHT22;11222;50.872;4.312;2023-03-31T06:26:23;11.80;99.90
22112;DHT22;11222;50.872;4.312;2023-03-31T06:28:49;11.90;99.90
22112;DHT22;11222;50.872;4.312;2023-03-31T06:31:20;11.90;99.90
22112;DHT22;11222;50.872;4.312;2023-03-31T06:33:46;12.00;99.90
22112;DHT22;11222;50.872;4.312;2023-03-31T06:36:14;12.10;99.90
22112;DHT22;11222;50.872;4.312;2023-03-31T06:38:40;12.10;99.90
22112;DHT22;11222;50.872;4.312;2023-03-31T06:41:07;12.10;99.90
22112;DHT22;11222;50.872;4.312;2023-03-31T06:43:34;12.20;99.90
22112;DHT22;11222;50.872;4.312;2023-03-31T06:46:00;12.30;99.90
22112;DHT22;11222;50.872;4.312;2023-03-31T06:48:26;12.30;99.90
22112;DHT22;11222;50.872;4.312;2023-03-31T06:50:53;12.40;99.90
22112;DHT22;11222;50.872;4.312;2023-03-31T06:53:19;12.30;99.90
22112;DHT22;11222;50.872;4.312;2023-03-31T06:55:44;12.30;99.90
22112;DHT22;11222;50.872;4.312;2023-03-31T06:58:10;12.30;99.90
22112;DHT22;11222;50.872;4.312;2023-03-31T07:00:37;12.30;99.90
22112;DHT22;11222;50.872;4.312;2023-03-31T07:03:03;12.30;99.90
22112;DHT22;11222;50.872;4.312;2023-03-31T07:05:30;12.30;99.90
22112;DHT22;11222;50.872;4.312;2023-03-31T07:07:57;12.40;99.90
22112;DHT22;11222;50.872;4.312;2023-03-31T07:10:25;12.50;99.90
22112;DHT22;11222;50.872;4.312;2023-03-31T07:12:51;12.50;99.90
22112;DHT22;11222;50.872;4.312;2023-03-31T07:15:17;12.50;99.90
22112;DHT22;11222;50.872;4.312;2023-03-31T07:17:43;12.50;99.90
22112;DHT22;11222;50.872;4.312;2023-03-31T07:20:13;12.40;99.90
22112;DHT22;11222;50.872;4.312;2023-03-31T07:22:44;12.50;99.90
22112;DHT22;11222;50.872;4.312;2023-03-31T07:25:12;12.40;99.90
22112;DHT22;11222;50.872;4.312;2023-03-31T07:27:38;12.40;99.90
22112;DHT22;11222;50.872;4.312;2023-03-31T07:30:09;12.40;99.90
22112;DHT22;11222;50.872;4.312;2023-03-31T07:32:35;12.40;99.90
22112;DHT22;11222;50.872;4.312;2023-03-31T07:35:08;12.30;99.90
22112;DHT22;11222;50.872;4.312;2023-03-31T07:37:35;12.30;99.90
22112;DHT22;11222;50.872;4.312;2023-03-31T07:40:02;12.20;99.90
22112;DHT22;11222;50.872;4.312;2023-03-31T07:42:29;12.20;99.90
22112;DHT22;11222;50.872;4.312;2023-03-31T07:44:55;12.20;99.90
22112;DHT22;11222;50.872;4.312;2023-03-31T07:47:21;12.20;99.90
22112;DHT22;11222;50.872;4.312;2023-03-31T07:49:46;12.20;99.90
22112;DHT22;11222;50.872;4.312;2023-03-31T07:52:14;12.20;99.90
22112;DHT22;11222;50.872;4.312;2023-03-31T07:54:40;12.20;99.90
22112;DHT22;11222;50.872;4.312;2023-03-31T07:57:05;12.20;99.90
22112;DHT22;11222;50.872;4.312;2023-03-31T07:59:33;12.20;99.90
22112;DHT22;11222;50.872;4.312;2023-03-31T08:01:59;12.20;99.90
22112;DHT22;11222;50.872;4.312;2023-03-31T08:04:25;12.20;99.90
22112;DHT22;11222;50.872;4.312;2023-03-31T08:06:50;12.30;99.90
22112;DHT22;11222;50.872;4.312;2023-03-31T08:09:16;12.20;99.90
22112;DHT22;11222;50.872;4.312;2023-03-31T08:11:43;12.30;99.90
22112;DHT22;11222;50.872;4.312;2023-03-31T08:14:08;12.30;99.90
22112;DHT22;11222;50.872;4.312;2023-03-31T08:16:34;12.40;99.90
22112;DHT22;11222;50.872;4.312;2023-03-31T08:19:00;12.40;99.90
22112;DHT22;11222;50.872;4.312;2023-03-31T08:21:28;12.40;99.90
22112;DHT22;11222;50.872;4.312;2023-03-31T08:23:54;12.40;99.90
22112;DHT22;11222;50.872;4.312;2023-03-31T08:26:20;12.40;99.90
22112;DHT22;11222;50.872;4.312;2023-03-31T08:28:48;12.30;99.90
22112;DHT22;11222;50.872;4.312;2023-03-31T08:31:16;12.30;99.90
22112;DHT22;11222;50.872;4.312;2023-03-31T08:33:43;12.30;99.90
22112;DHT22;11222;50.872;4.312;2023-03-31T08:36:09;12.30;99.90
22112;DHT22;11222;50.872;4.312;2023-03-31T08:38:39;12.40;99.90
22112;DHT22;11222;50.872;4.312;2023-03-31T08:41:31;12.40;99.90
22112;DHT22;11222;50.872;4.312;2023-03-31T08:43:59;12.40;99.90
22112;DHT22;11222;50.872;4.312;2023-03-31T08:46:28;12.50;99.90
22112;DHT22;11222;50.872;4.312;2023-03-31T08:48:57;12.60;99.90
22112;DHT22;11222;50.872;4.312;2023-03-31T08:51:46;12.70;99.90
22112;DHT22;11222;50.872;4.312;2023-03-31T08:54:46;12.60;99.90
22112;DHT22;11222;50.872;4.312;2023-03-31T08:57:34;12.60;99.90
22112;DHT22;11222;50.872;4.312;2023-03-31T08:59:56;12.60;99.90
22112;DHT22;11222;50.872;4.312;2023-03-31T09:18:36;12.80;99.90
22112;DHT22;11222;50.872;4.312;2023-03-31T09:21:32;12.80;99.90
22112;DHT22;11222;50.872;4.312;2023-03-31T09:24:06;12.80;99.90
22112;DHT22;11222;50.872;4.312;2023-03-31T09:26:57;12.80;99.90
22112;DHT22;11222;50.872;4.312;2023-03-31T09:32:17;12.80;99.90
22112;DHT22;11222;50.872;4.312;2023-03-31T09:34:45;12.80;99.90
22112;DHT22;11222;50.872;4.312;2023-03-31T09:37:12;12.80;99.90
22112;DHT22;11222;50.872;4.312;2023-03-31T09:39:39;12.80;99.90
22112;DHT22;11222;50.872;4.312;2023-03-31T09:42:05;12.80;99.90
22112;DHT22;11222;50.872;4.312;2023-03-31T09:44:43;12.80;99.90
22112;DHT22;11222;50.872;4.312;2023-03-31T09:47:38;12.70;99.90
22112;DHT22;11222;50.872;4.312;2023-03-31T09:50:08;12.70;99.90
22112;DHT22;11222;50.872;4.312;2023-03-31T09:52:39;12.70;99.90
22112;DHT22;11222;50.872;4.312;2023-03-31T09:57:40;12.60;99.90
22112;DHT22;11222;50.872;4.312;2023-03-31T10:02:54;12.50;99.90
22112;DHT22;11222;50.872;4.312;2023-03-31T10:05:32;12.50;99.90
22112;DHT22;11222;50.872;4.312;2023-03-31T10:10:35;12.50;99.90
22112;DHT22;11222;50.872;4.312;2023-03-31T10:13:07;12.60;99.90
22112;DHT22;11222;50.872;4.312;2023-03-31T10:15:36;12.70;99.90
22112;DHT22;11222;50.872;4.312;2023-03-31T10:18:02;12.70;99.90
22112;DHT22;11222;50.872;4.312;2023-03-31T10:20:40;12.60;99.90
22112;DHT22;11222;50.872;4.312;2023-03-31T10:25:48;12.70;99.90
22112;DHT22;11222;50.872;4.312;2023-03-31T10:28:19;12.70;99.90
22112;DHT22;11222;50.872;4.312;2023-03-31T10:30:53;12.70;99.90
22112;DHT22;11222;50.872;4.312;2023-03-31T10:33:25;12.80;99.90
22112;DHT22;11222;50.872;4.312;2023-03-31T10:35:57;13.00;99.90
22112;DHT22;11222;50.872;4.312;2023-03-31T10:38:30;13.10;99.90
22112;DHT22;11222;50.872;4.312;2023-03-31T10:40:59;13.00;99.90
22112;DHT22;11222;50.872;4.312;2023-03-31T10:43:29;12.90;99.90
22112;DHT22;11222;50.872;4.312;2023-03-31T10:45:59;12.80;99.90
22112;DHT22;11222;50.872;4.312;2023-03-31T10:50:54;12.80;99.90
22112;DHT22;11222;50.872;4.312;2023-03-31T10:53:22;12.90;99.90
22112;DHT22;11222;50.872;4.312;2023-03-31T10:56:13;13.00;99.90
22112;DHT22;11222;50.872;4.312;2023-03-31T10:58:51;13.10;99.90
22112;DHT22;11222;50.872;4.312;2023-03-31T11:10:33;12.90;99.90
22112;DHT22;11222;50.872;4.312;2023-03-31T11:21:55;13.10;99.90
22112;DHT22;11222;50.872;4.312;2023-03-31T11:29:43;13.20;99.90
22112;DHT22;11222;50.872;4.312;2023-03-31T11:38:03;13.40;99.90
22112;DHT22;11222;50.872;4.312;2023-03-31T11:43:32;14.00;99.90
22112;DHT22;11222;50.872;4.312;2023-03-31T11:48:53;13.80;99.90
22112;DHT22;11222;50.872;4.312;2023-03-31T11:51:43;13.80;99.90
22112;DHT22;11222;50.872;4.312;2023-03-31T11:54:33;13.60;99.90
22112;DHT22;11222;50.872;4.312;2023-03-31T11:57:08;13.50;99.90
22112;DHT22;11222;50.872;4.312;2023-03-31T11:59:35;13.60;99.90
22112;DHT22;11222;50.872;4.312;2023-03-31T12:02:20;13.40;99.90
22112;DHT22;11222;50.872;4.312;2023-03-31T12:04:51;13.30;99.90
22112;DHT22;11222;50.872;4.312;2023-03-31T12:07:37;13.20;99.90
22112;DHT22;11222;50.872;4.312;2023-03-31T12:10:19;13.10;99.90
22112;DHT22;11222;50.872;4.312;2023-03-31T12:15:39;12.90;99.90
22112;DHT22;11222;50.872;4.312;2023-03-31T12:18:17;12.60;99.90
22112;DHT22;11222;50.872;4.312;2023-03-31T12:20:56;12.40;99.90
22112;DHT22;11222;50.872;4.312;2023-03-31T12:23:26;12.40;99.90
22112;DHT22;11222;50.872;4.312;2023-03-31T12:26:16;12.40;99.90
22112;DHT22;11222;50.872;4.312;2023-03-31T12:28:50;12.30;99.90
22112;DHT22;11222;50.872;4.312;2023-03-31T12:31:20;12.30;99.90
22112;DHT22;11222;50.872;4.312;2023-03-31T12:33:58;12.30;99.90
22112;DHT22;11222;50.872;4.312;2023-03-31T12:56:00;12.50;99.90
22112;DHT22;11222;50.872;4.312;2023-03-31T13:01:09;12.80;99.90
22112;DHT22;11222;50.872;4.312;2023-03-31T13:08:57;12.80;99.90
22112;DHT22;11222;50.872;4.312;2023-03-31T13:16:36;12.70;99.90
22112;DHT22;11222;50.872;4.312;2023-03-31T13:19:02;12.60;99.90
22112;DHT22;11222;50.872;4.312;2023-03-31T13:21:28;12.70;99.90
22112;DHT22;11222;50.872;4.312;2023-03-31T13:23:59;12.60;99.90
22112;DHT22;11222;50.872;4.312;2023-03-31T13:26:45;12.60;99.90
22112;DHT22;11222;50.872;4.312;2023-03-31T13:34:28;12.60;99.90
22112;DHT22;11222;50.872;4.312;2023-03-31T13:54:31;12.20;99.90
22112;DHT22;11222;50.872;4.312;2023-03-31T14:00:53;12.10;99.90
22112;DHT22;11222;50.872;4.312;2023-03-31T14:03:45;12.20;99.90
22112;DHT22;11222;50.872;4.312;2023-03-31T14:09:26;12.10;99.90
22112;DHT22;11222;50.872;4.312;2023-03-31T14:11:53;12.10;99.90
22112;DHT22;11222;50.872;4.312;2023-03-31T14:14:19;12.20;99.90
22112;DHT22;11222;50.872;4.312;2023-03-31T14:16:51;12.20;99.90
22112;DHT22;11222;50.872;4.312;2023-03-31T14:27:52;12.20;99.90
22112;DHT22;11222;50.872;4.312;2023-03-31T14:30:39;12.20;99.90
22112;DHT22;11222;50.872;4.312;2023-03-31T14:35:49;12.20;99.90
22112;DHT22;11222;50.872;4.312;2023-03-31T14:38:19;12.30;99.90
22112;DHT22;11222;50.872;4.312;2023-03-31T14:40:50;12.20;99.90
22112;DHT22;11222;50.872;4.312;2023-03-31T14:43:24;12.30;99.90
22112;DHT22;11222;50.872;4.312;2023-03-31T14:46:02;12.20;99.90
22112;DHT22;11222;50.872;4.312;2023-03-31T14:48:30;12.30;99.90
22112;DHT22;11222;50.872;4.312;2023-03-31T14:50:59;12.30;99.90
22112;DHT22;11222;50.872;4.312;2023-03-31T14:53:26;12.40;99.90
22112;DHT22;11222;50.872;4.312;2023-03-31T14:56:00;12.40;99.90
22112;DHT22;11222;50.872;4.312;2023-03-31T14:58:28;12.40;99.90
22112;DHT22;11222;50.872;4.312;2023-03-31T15:00:56;12.40;99.90
22112;DHT22;11222;50.872;4.312;2023-03-31T15:03:24;12.30;99.90
22112;DHT22;11222;50.872;4.312;2023-03-31T15:05:56;12.20;99.90
22112;DHT22;11222;50.872;4.312;2023-03-31T15:08:23;11.90;99.90
22112;DHT22;11222;50.872;4.312;2023-03-31T15:10:52;11.80;99.90
22112;DHT22;11222;50.872;4.312;2023-03-31T15:15:54;11.80;99.90
22112;DHT22;11222;50.872;4.312;2023-03-31T15:18:20;11.80;99.90
22112;DHT22;11222;50.872;4.312;2023-03-31T15:20:45;11.80;99.90
22112;DHT22;11222;50.872;4.312;2023-03-31T15:23:23;11.90;99.90
22112;DHT22;11222;50.872;4.312;2023-03-31T15:25:58;11.90;99.90
22112;DHT22;11222;50.872;4.312;2023-03-31T15:28:36;12.00;99.90
22112;DHT22;11222;50.872;4.312;2023-03-31T15:31:03;12.10;99.90
22112;DHT22;11222;50.872;4.312;2023-03-31T15:33:33;12.00;99.90
22112;DHT22;11222;50.872;4.312;2023-03-31T15:36:03;12.00;99.90
22112;DHT22;11222;50.872;4.312;2023-03-31T15:38:29;12.00;99.90
22112;DHT22;11222;50.872;4.312;2023-03-31T15:40:59;12.00;99.90
22112;DHT22;11222;50.872;4.312;2023-03-31T15:43:41;11.90;99.90
22112;DHT22;11222;50.872;4.312;2023-03-31T15:46:57;11.80;99.90
22112;DHT22;11222;50.872;4.312;2023-03-31T15:48:56;11.80;99.90
22112;DHT22;11222;50.872;4.312;2023-03-31T15:51:34;11.70;99.90
22112;DHT22;11222;50.872;4.312;2023-03-31T15:54:00;11.70;99.90
22112;DHT22;11222;50.872;4.312;2023-03-31T15:56:34;11.70;99.90
22112;DHT22;11222;50.872;4.312;2023-03-31T15:59:03;11.60;99.90
22112;DHT22;11222;50.872;4.312;2023-03-31T16:01:36;11.60;99.90
22112;DHT22;11222;50.872;4.312;2023-03-31T16:04:12;11.60;99.90
22112;DHT22;11222;50.872;4.312;2023-03-31T16:09:10;11.50;99.90
22112;DHT22;11222;50.872;4.312;2023-03-31T16:11:44;11.40;99.90
22112;DHT22;11222;50.872;4.312;2023-03-31T16:14:19;11.40;99.90
22112;DHT22;11222;50.872;4.312;2023-03-31T16:16:52;11.40;99.90
22112;DHT22;11222;50.872;4.312;2023-03-31T16:19:20;11.30;99.90
22112;DHT22;11222;50.872;4.312;2023-03-31T16:21:50;11.30;99.90
22112;DHT22;11222;50.872;4.312;2023-03-31T16:24:20;11.20;99.90
22112;DHT22;11222;50.872;4.312;2023-03-31T16:26:48;11.10;99.90
22112;DHT22;11222;50.872;4.312;2023-03-31T16:29:20;11.10;99.90
22112;DHT22;11222;50.872;4.312;2023-03-31T16:31:47;11.10;99.90
22112;DHT22;11222;50.872;4.312;2023-03-31T16:34:13;11.20;99.90
22112;DHT22;11222;50.872;4.312;2023-03-31T16:36:39;11.10;99.90
22112;DHT22;11222;50.872;4.312;2023-03-31T16:39:05;11.10;99.90
22112;DHT22;11222;50.872;4.312;2023-03-31T16:41:32;11.10;99.90
22112;DHT22;11222;50.872;4.312;2023-03-31T16:43:59;11.00;99.90
22112;DHT22;11222;50.872;4.312;2023-03-31T16:46:25;11.00;99.90
22112;DHT22;11222;50.872;4.312;2023-03-31T16:48:51;11.00;99.90
22112;DHT22;11222;50.872;4.312;2023-03-31T16:51:17;10.90;99.90
22112;DHT22;11222;50.872;4.312;2023-03-31T16:53:44;11.00;99.90
22112;DHT22;11222;50.872;4.312;2023-03-31T16:56:10;11.10;99.90
22112;DHT22;11222;50.872;4.312;2023-03-31T16:58:37;11.00;99.90
22112;DHT22;11222;50.872;4.312;2023-03-31T17:01:05;11.00;99.90
22112;DHT22;11222;50.872;4.312;2023-03-31T17:03:32;10.90;99.90
22112;DHT22;11222;50.872;4.312;2023-03-31T17:06:04;10.90;99.90
22112;DHT22;11222;50.872;4.312;2023-03-31T17:08:30;10.90;99.90
22112;DHT22;11222;50.872;4.312;2023-03-31T17:11:02;10.90;99.90
22112;DHT22;11222;50.872;4.312;2023-03-31T17:13:29;10.90;99.90
22112;DHT22;11222;50.872;4.312;2023-03-31T17:15:57;10.90;99.90
22112;DHT22;11222;50.872;4.312;2023-03-31T17:18:24;10.90;99.90
22112;DHT22;11222;50.872;4.312;2023-03-31T17:20:50;11.00;99.90
22112;DHT22;11222;50.872;4.312;2023-03-31T17:23:18;11.00;99.90
22112;DHT22;11222;50.872;4.312;2023-03-31T17:25:52;11.00;99.90
22112;DHT22;11222;50.872;4.312;2023-03-31T17:28:18;11.00;99.90
22112;DHT22;11222;50.872;4.312;2023-03-31T17:30:44;11.00;99.90
22112;DHT22;11222;50.872;4.312;2023-03-31T17:33:13;11.00;99.90
22112;DHT22;11222;50.872;4.312;2023-03-31T17:35:40;10.90;99.90
22112;DHT22;11222;50.872;4.312;2023-03-31T17:38:06;10.90;99.90
22112;DHT22;11222;50.872;4.312;2023-03-31T17:40:34;10.90;99.90
22112;DHT22;11222;50.872;4.312;2023-03-31T17:43:00;10.90;99.90
22112;DHT22;11222;50.872;4.312;2023-03-31T17:45:28;10.90;99.90
22112;DHT22;11222;50.872;4.312;2023-03-31T17:47:54;10.80;99.90
22112;DHT22;11222;50.872;4.312;2023-03-31T17:50:20;10.80;99.90
22112;DHT22;11222;50.872;4.312;2023-03-31T17:52:46;10.70;99.90
22112;DHT22;11222;50.872;4.312;2023-03-31T17:55:12;10.70;99.90
22112;DHT22;11222;50.872;4.312;2023-03-31T17:57:39;10.80;99.90
22112;DHT22;11222;50.872;4.312;2023-03-31T18:00:08;10.70;99.90
22112;DHT22;11222;50.872;4.312;2023-03-31T18:02:38;10.80;99.90
22112;DHT22;11222;50.872;4.312;2023-03-31T18:05:05;10.70;99.90
22112;DHT22;11222;50.872;4.312;2023-03-31T18:07:33;10.70;99.90
22112;DHT22;11222;50.872;4.312;2023-03-31T18:09:59;10.70;99.90
22112;DHT22;11222;50.872;4.312;2023-03-31T18:12:25;10.70;99.90
22112;DHT22;11222;50.872;4.312;2023-03-31T18:14:53;10.60;99.90
22112;DHT22;11222;50.872;4.312;2023-03-31T18:17:20;10.60;99.90
22112;DHT22;11222;50.872;4.312;2023-03-31T18:19:45;10.60;99.90
22112;DHT22;11222;50.872;4.312;2023-03-31T18:22:11;10.50;99.90
22112;DHT22;11222;50.872;4.312;2023-03-31T18:24:37;10.50;99.90
22112;DHT22;11222;50.872;4.312;2023-03-31T18:27:04;10.60;99.90
22112;DHT22;11222;50.872;4.312;2023-03-31T18:29:31;10.60;99.90
22112;DHT22;11222;50.872;4.312;2023-03-31T18:31:57;10.50;99.90
22112;DHT22;11222;50.872;4.312;2023-03-31T18:34:22;10.50;99.90
22112;DHT22;11222;50.872;4.312;2023-03-31T18:36:48;10.50;99.90
22112;DHT22;11222;50.872;4.312;2023-03-31T18:39:14;10.50;99.90
22112;DHT22;11222;50.872;4.312;2023-03-31T18:41:49;10.50;99.90
22112;DHT22;11222;50.872;4.312;2023-03-31T18:44:17;10.50;99.90
22112;DHT22;11222;50.872;4.312;2023-03-31T18:46:46;10.50;99.90
22112;DHT22;11222;50.872;4.312;2023-03-31T18:49:12;10.50;99.90
22112;DHT22;11222;50.872;4.312;2023-03-31T18:51:38;10.50;99.90
22112;DHT22;11222;50.872;4.312;2023-03-31T18:54:04;10.50;99.90